sensor_id;sensor_type;location;lat;lon;timestamp;pressure;altitude;pressure_sealevel;temperature;humidity
54361;BME280;40258;53.936;27.540;2022-07-23T00:02:11;99303.38;;;17.49;100.00
54361;BME280;40258;53.936;27.540;2022-07-23T00:04:40;99306.34;;;17.40;100.00
54361;BME280;40258;53.936;27.540;2022-07-23T00:07:09;99314.88;;;17.35;100.00
54361;BME280;40258;53.936;27.540;2022-07-23T00:09:37;99319.94;;;17.33;100.00
54361;BME280;40258;53.936;27.540;2022-07-23T00:12:06;99313.88;;;17.24;100.00
54361;BME280;40258;53.936;27.540;2022-07-23T00:14:37;99328.50;;;17.12;100.00
54361;BME280;40258;53.936;27.540;2022-07-23T00:17:05;99321.44;;;17.11;100.00
54361;BME280;40258;53.936;27.540;2022-07-23T00:19:34;99326.56;;;17.13;100.00
54361;BME280;40258;53.936;27.540;2022-07-23T00:22:03;99330.88;;;17.14;100.00
54361;BME280;40258;53.936;27.540;2022-07-23T00:24:31;99320.00;;;17.17;100.00
54361;BME280;40258;53.936;27.540;2022-07-23T00:27:00;99316.09;;;17.18;100.00
54361;BME280;40258;53.936;27.540;2022-07-23T00:29:28;99314.53;;;17.17;100.00
54361;BME280;40258;53.936;27.540;2022-07-23T00:31:59;99312.91;;;17.16;100.00
54361;BME280;40258;53.936;27.540;2022-07-23T00:34:27;99313.28;;;17.15;100.00
54361;BME280;40258;53.936;27.540;2022-07-23T00:36:56;99326.22;;;17.14;100.00
54361;BME280;40258;53.936;27.540;2022-07-23T00:39:24;99320.13;;;17.05;100.00
54361;BME280;40258;53.936;27.540;2022-07-23T00:41:53;99324.09;;;17.07;100.00
54361;BME280;40258;53.936;27.540;2022-07-23T00:44:24;99326.75;;;17.04;100.00
54361;BME280;40258;53.936;27.540;2022-07-23T00:46:56;99322.00;;;17.01;100.00
54361;BME280;40258;53.936;27.540;2022-07-23T00:49:29;99317.22;;;16.98;100.00
54361;BME280;40258;53.936;27.540;2022-07-23T00:52:02;99308.59;;;16.96;100.00
54361;BME280;40258;53.936;27.540;2022-07-23T00:54:31;99308.13;;;16.94;100.00
54361;BME280;40258;53.936;27.540;2022-07-23T00:56:59;99318.00;;;16.98;100.00
54361;BME280;40258;53.936;27.540;2022-07-23T00:59:28;99319.69;;;17.03;100.00
54361;BME280;40258;53.936;27.540;2022-07-23T01:01:58;99315.78;;;17.04;100.00
54361;BME280;40258;53.936;27.540;2022-07-23T01:04:28;99316.94;;;17.03;100.00
54361;BME280;40258;53.936;27.540;2022-07-23T01:06:56;99318.59;;;17.07;100.00
54361;BME280;40258;53.936;27.540;2022-07-23T01:09:25;99314.34;;;17.10;100.00
54361;BME280;40258;53.936;27.540;2022-07-23T01:11:55;99313.34;;;17.18;100.00
54361;BME280;40258;53.936;27.540;2022-07-23T01:14:24;99304.84;;;17.23;98.18
54361;BME280;40258;53.936;27.540;2022-07-23T01:16:53;99310.19;;;17.36;96.81
54361;BME280;40258;53.936;27.540;2022-07-23T01:19:22;99306.34;;;17.40;96.29
54361;BME280;40258;53.936;27.540;2022-07-23T01:21:53;99304.03;;;17.42;96.09
54361;BME280;40258;53.936;27.540;2022-07-23T01:24:26;99307.94;;;17.41;96.82
54361;BME280;40258;53.936;27.540;2022-07-23T01:27:00;99298.91;;;17.41;95.62
54361;BME280;40258;53.936;27.540;2022-07-23T01:29:28;99299.03;;;17.48;93.63
54361;BME280;40258;53.936;27.540;2022-07-23T01:32:00;99303.44;;;17.53;93.04
54361;BME280;40258;53.936;27.540;2022-07-23T01:34:29;99298.88;;;17.60;92.58
54361;BME280;40258;53.936;27.540;2022-07-23T01:36:57;99303.94;;;17.58;93.09
54361;BME280;40258;53.936;27.540;2022-07-23T01:39:27;99303.53;;;17.56;93.36
54361;BME280;40258;53.936;27.540;2022-07-23T01:41:56;99296.44;;;17.55;93.86
54361;BME280;40258;53.936;27.540;2022-07-23T01:44:25;99301.16;;;17.55;94.00
54361;BME280;40258;53.936;27.540;2022-07-23T01:46:55;99296.38;;;17.52;94.08
54361;BME280;40258;53.936;27.540;2022-07-23T01:49:23;99294.41;;;17.52;94.28
54361;BME280;40258;53.936;27.540;2022-07-23T01:51:58;99299.84;;;17.49;95.32
54361;BME280;40258;53.936;27.540;2022-07-23T01:54:50;99296.91;;;17.38;97.59
54361;BME280;40258;53.936;27.540;2022-07-23T01:57:19;99299.06;;;17.29;97.80
54361;BME280;40258;53.936;27.540;2022-07-23T01:59:47;99288.81;;;17.25;97.50
54361;BME280;40258;53.936;27.540;2022-07-23T02:02:19;99293.53;;;17.25;98.22
54361;BME280;40258;53.936;27.540;2022-07-23T02:04:48;99297.34;;;17.20;98.95
54361;BME280;40258;53.936;27.540;2022-07-23T02:07:18;99295.75;;;17.19;99.11
54361;BME280;40258;53.936;27.540;2022-07-23T02:09:47;99294.88;;;17.15;100.00
54361;BME280;40258;53.936;27.540;2022-07-23T02:12:17;99295.47;;;17.05;100.00
54361;BME280;40258;53.936;27.540;2022-07-23T02:14:45;99293.00;;;17.00;100.00
54361;BME280;40258;53.936;27.540;2022-07-23T02:17:14;99298.94;;;17.02;100.00
54361;BME280;40258;53.936;27.540;2022-07-23T02:19:43;99310.31;;;17.04;100.00
54361;BME280;40258;53.936;27.540;2022-07-23T02:22:11;99301.72;;;17.05;100.00
54361;BME280;40258;53.936;27.540;2022-07-23T02:24:40;99298.63;;;17.07;100.00
54361;BME280;40258;53.936;27.540;2022-07-23T02:27:10;99293.88;;;17.04;100.00
54361;BME280;40258;53.936;27.540;2022-07-23T02:29:40;99290.75;;;17.05;100.00
54361;BME280;40258;53.936;27.540;2022-07-23T02:32:09;99283.91;;;17.15;98.61
54361;BME280;40258;53.936;27.540;2022-07-23T02:34:38;99284.13;;;17.26;97.94
54361;BME280;40258;53.936;27.540;2022-07-23T02:37:07;99289.81;;;17.37;97.21
54361;BME280;40258;53.936;27.540;2022-07-23T02:39:37;99298.25;;;17.48;96.82
54361;BME280;40258;53.936;27.540;2022-07-23T02:42:05;99294.06;;;17.54;94.67
54361;BME280;40258;53.936;27.540;2022-07-23T02:44:35;99289.91;;;17.64;94.19
54361;BME280;40258;53.936;27.540;2022-07-23T02:47:06;99285.44;;;17.75;92.63
54361;BME280;40258;53.936;27.540;2022-07-23T02:49:35;99286.06;;;17.88;90.57
54361;BME280;40258;53.936;27.540;2022-07-23T02:52:06;99290.22;;;18.01;88.39
54361;BME280;40258;53.936;27.540;2022-07-23T02:54:35;99287.78;;;18.19;88.33
54361;BME280;40258;53.936;27.540;2022-07-23T02:57:03;99288.44;;;18.36;86.17
54361;BME280;40258;53.936;27.540;2022-07-23T02:59:32;99290.66;;;18.53;84.41
54361;BME280;40258;53.936;27.540;2022-07-23T03:02:02;99288.88;;;18.68;83.55
54361;BME280;40258;53.936;27.540;2022-07-23T03:04:32;99293.41;;;18.83;82.57
54361;BME280;40258;53.936;27.540;2022-07-23T03:07:01;99284.19;;;18.95;81.40
54361;BME280;40258;53.936;27.540;2022-07-23T03:09:29;99289.84;;;19.10;80.76
54361;BME280;40258;53.936;27.540;2022-07-23T03:11:58;99290.47;;;19.26;79.88
54361;BME280;40258;53.936;27.540;2022-07-23T03:14:26;99289.34;;;19.68;78.31
54361;BME280;40258;53.936;27.540;2022-07-23T03:16:56;99300.31;;;20.58;76.38
54361;BME280;40258;53.936;27.540;2022-07-23T03:19:26;99285.84;;;21.52;70.78
54361;BME280;40258;53.936;27.540;2022-07-23T03:21:56;99285.09;;;22.53;66.98
54361;BME280;40258;53.936;27.540;2022-07-23T03:24:25;99294.28;;;23.42;62.08
54361;BME280;40258;53.936;27.540;2022-07-23T03:27:14;99295.59;;;23.93;58.81
54361;BME280;40258;53.936;27.540;2022-07-23T03:29:43;99282.22;;;23.84;58.58
54361;BME280;40258;53.936;27.540;2022-07-23T03:32:12;99287.00;;;23.69;58.19
54361;BME280;40258;53.936;27.540;2022-07-23T03:34:40;99287.97;;;23.41;59.70
54361;BME280;40258;53.936;27.540;2022-07-23T03:37:10;99280.97;;;23.15;60.34
54361;BME280;40258;53.936;27.540;2022-07-23T03:39:39;99273.91;;;23.00;61.28
54361;BME280;40258;53.936;27.540;2022-07-23T03:42:10;99275.53;;;22.86;62.28
54361;BME280;40258;53.936;27.540;2022-07-23T03:44:39;99281.91;;;22.72;61.82
54361;BME280;40258;53.936;27.540;2022-07-23T03:47:07;99279.94;;;22.62;62.11
54361;BME280;40258;53.936;27.540;2022-07-23T03:49:36;99271.28;;;22.56;62.67
54361;BME280;40258;53.936;27.540;2022-07-23T03:52:05;99268.91;;;22.51;62.96
54361;BME280;40258;53.936;27.540;2022-07-23T03:54:35;99282.34;;;22.49;62.00
54361;BME280;40258;53.936;27.540;2022-07-23T03:57:04;99274.84;;;22.42;62.75
54361;BME280;40258;53.936;27.540;2022-07-23T03:59:33;99276.03;;;22.41;62.74
54361;BME280;40258;53.936;27.540;2022-07-23T04:02:01;99279.56;;;22.56;62.97
54361;BME280;40258;53.936;27.540;2022-07-23T04:04:30;99272.47;;;22.63;62.17
54361;BME280;40258;53.936;27.540;2022-07-23T04:06:59;99276.00;;;22.63;62.38
54361;BME280;40258;53.936;27.540;2022-07-23T04:09:29;99270.06;;;22.68;61.71
54361;BME280;40258;53.936;27.540;2022-07-23T04:11:59;99279.53;;;22.71;61.35
54361;BME280;40258;53.936;27.540;2022-07-23T04:14:28;99277.53;;;22.82;61.45
54361;BME280;40258;53.936;27.540;2022-07-23T04:16:56;99265.22;;;22.90;61.34
54361;BME280;40258;53.936;27.540;2022-07-23T04:19:25;99258.50;;;22.95;60.97
54361;BME280;40258;53.936;27.540;2022-07-23T04:22:05;99258.47;;;23.02;60.70
54361;BME280;40258;53.936;27.540;2022-07-23T04:24:35;99258.88;;;23.08;60.17
54361;BME280;40258;53.936;27.540;2022-07-23T04:27:05;99256.50;;;23.10;60.32
54361;BME280;40258;53.936;27.540;2022-07-23T04:29:34;99254.13;;;23.12;59.49
54361;BME280;40258;53.936;27.540;2022-07-23T04:32:03;99254.84;;;23.27;59.71
54361;BME280;40258;53.936;27.540;2022-07-23T04:34:32;99254.78;;;23.34;59.38
54361;BME280;40258;53.936;27.540;2022-07-23T04:37:01;99262.69;;;23.36;59.17
54361;BME280;40258;53.936;27.540;2022-07-23T04:39:31;99253.19;;;23.37;59.80
54361;BME280;40258;53.936;27.540;2022-07-23T04:42:00;99257.16;;;23.36;59.69
54361;BME280;40258;53.936;27.540;2022-07-23T04:44:32;99255.50;;;23.49;59.43
54361;BME280;40258;53.936;27.540;2022-07-23T04:47:03;99257.09;;;23.50;58.92
54361;BME280;40258;53.936;27.540;2022-07-23T04:49:31;99246.72;;;23.61;59.46
54361;BME280;40258;53.936;27.540;2022-07-23T04:52:00;99259.31;;;23.69;58.65
54361;BME280;40258;53.936;27.540;2022-07-23T04:54:29;99253.84;;;23.62;59.43
54361;BME280;40258;53.936;27.540;2022-07-23T04:56:58;99249.84;;;23.67;59.40
54361;BME280;40258;53.936;27.540;2022-07-23T04:59:26;99250.16;;;23.76;59.06
54361;BME280;40258;53.936;27.540;2022-07-23T05:02:01;99253.69;;;23.84;59.01
54361;BME280;40258;53.936;27.540;2022-07-23T05:04:31;99248.94;;;23.81;59.42
54361;BME280;40258;53.936;27.540;2022-07-23T05:07:00;99256.06;;;23.85;59.53
54361;BME280;40258;53.936;27.540;2022-07-23T05:09:29;99258.31;;;24.01;59.56
54361;BME280;40258;53.936;27.540;2022-07-23T05:11:59;99256.25;;;24.13;59.13
54361;BME280;40258;53.936;27.540;2022-07-23T05:14:28;99252.75;;;24.05;59.58
54361;BME280;40258;53.936;27.540;2022-07-23T05:16:56;99249.09;;;24.15;58.44
54361;BME280;40258;53.936;27.540;2022-07-23T05:19:28;99247.13;;;24.16;58.91
54361;BME280;40258;53.936;27.540;2022-07-23T05:21:57;99252.69;;;24.12;59.34
54361;BME280;40258;53.936;27.540;2022-07-23T05:24:26;99252.06;;;24.35;59.71
54361;BME280;40258;53.936;27.540;2022-07-23T05:26:55;99259.19;;;24.36;58.57
54361;BME280;40258;53.936;27.540;2022-07-23T05:29:23;99252.38;;;24.45;59.35
54361;BME280;40258;53.936;27.540;2022-07-23T05:31:52;99254.78;;;24.43;58.17
54361;BME280;40258;53.936;27.540;2022-07-23T05:34:21;99251.88;;;24.57;58.90
54361;BME280;40258;53.936;27.540;2022-07-23T05:36:51;99248.91;;;24.75;58.35
54361;BME280;40258;53.936;27.540;2022-07-23T05:39:21;99250.41;;;24.83;57.94
54361;BME280;40258;53.936;27.540;2022-07-23T05:41:50;99244.06;;;24.83;57.97
54361;BME280;40258;53.936;27.540;2022-07-23T05:44:18;99245.19;;;24.89;58.21
54361;BME280;40258;53.936;27.540;2022-07-23T05:46:47;99253.25;;;25.10;58.18
54361;BME280;40258;53.936;27.540;2022-07-23T05:49:21;99245.28;;;25.12;56.83
54361;BME280;40258;53.936;27.540;2022-07-23T05:52:07;99240.94;;;25.11;56.98
54361;BME280;40258;53.936;27.540;2022-07-23T05:55:06;99242.72;;;25.25;58.42
54361;BME280;40258;53.936;27.540;2022-07-23T05:57:36;99237.31;;;25.45;56.97
54361;BME280;40258;53.936;27.540;2022-07-23T06:00:07;99237.75;;;25.71;57.22
54361;BME280;40258;53.936;27.540;2022-07-23T06:02:41;99226.19;;;25.73;56.94
54361;BME280;40258;53.936;27.540;2022-07-23T06:05:11;99232.53;;;25.73;56.49
54361;BME280;40258;53.936;27.540;2022-07-23T06:07:41;99238.09;;;25.73;56.68
54361;BME280;40258;53.936;27.540;2022-07-23T06:10:10;99229.84;;;25.93;57.07
54361;BME280;40258;53.936;27.540;2022-07-23T06:12:39;99228.69;;;25.91;56.59
54361;BME280;40258;53.936;27.540;2022-07-23T06:15:09;99231.25;;;26.05;56.21
54361;BME280;40258;53.936;27.540;2022-07-23T06:17:38;99225.69;;;26.05;55.86
54361;BME280;40258;53.936;27.540;2022-07-23T06:20:09;99231.84;;;26.16;56.39
54361;BME280;40258;53.936;27.540;2022-07-23T06:22:41;99228.56;;;26.22;56.31
54361;BME280;40258;53.936;27.540;2022-07-23T06:25:10;99225.50;;;26.16;55.26
54361;BME280;40258;53.936;27.540;2022-07-23T06:27:38;99222.75;;;26.36;56.26
54361;BME280;40258;53.936;27.540;2022-07-23T06:30:08;99227.69;;;26.48;56.24
54361;BME280;40258;53.936;27.540;2022-07-23T06:32:38;99217.84;;;26.64;55.46
54361;BME280;40258;53.936;27.540;2022-07-23T06:35:08;99215.19;;;26.57;55.23
54361;BME280;40258;53.936;27.540;2022-07-23T06:37:37;99220.91;;;26.49;55.37
54361;BME280;40258;53.936;27.540;2022-07-23T06:40:08;99227.75;;;26.45;54.97
54361;BME280;40258;53.936;27.540;2022-07-23T06:42:38;99214.50;;;26.52;56.62
54361;BME280;40258;53.936;27.540;2022-07-23T06:45:07;99227.59;;;26.76;56.22
54361;BME280;40258;53.936;27.540;2022-07-23T06:47:37;99225.38;;;26.67;55.69
54361;BME280;40258;53.936;27.540;2022-07-23T06:50:08;99221.19;;;26.79;56.81
54361;BME280;40258;53.936;27.540;2022-07-23T06:52:37;99219.28;;;26.92;54.98
54361;BME280;40258;53.936;27.540;2022-07-23T06:55:08;99216.81;;;27.14;55.47
54361;BME280;40258;53.936;27.540;2022-07-23T06:57:37;99224.09;;;27.28;54.64
54361;BME280;40258;53.936;27.540;2022-07-23T07:00:08;99220.09;;;27.29;54.77
54361;BME280;40258;53.936;27.540;2022-07-23T07:02:37;99228.78;;;26.95;54.54
54361;BME280;40258;53.936;27.540;2022-07-23T07:05:07;99221.56;;;26.97;54.30
54361;BME280;40258;53.936;27.540;2022-07-23T07:07:35;99225.59;;;26.96;55.74
54361;BME280;40258;53.936;27.540;2022-07-23T07:10:07;99232.28;;;26.99;55.17
54361;BME280;40258;53.936;27.540;2022-07-23T07:12:36;99234.34;;;27.35;55.42
54361;BME280;40258;53.936;27.540;2022-07-23T07:15:05;99228.78;;;27.68;54.70
54361;BME280;40258;53.936;27.540;2022-07-23T07:17:34;99228.59;;;27.75;54.54
54361;BME280;40258;53.936;27.540;2022-07-23T07:20:04;99213.19;;;27.87;54.17
54361;BME280;40258;53.936;27.540;2022-07-23T07:22:32;99225.81;;;27.91;52.62
54361;BME280;40258;53.936;27.540;2022-07-23T07:25:01;99227.22;;;27.67;53.47
54361;BME280;40258;53.936;27.540;2022-07-23T07:27:31;99220.59;;;27.77;53.16
54361;BME280;40258;53.936;27.540;2022-07-23T07:30:00;99213.78;;;27.94;54.10
54361;BME280;40258;53.936;27.540;2022-07-23T07:32:29;99211.88;;;28.08;53.10
54361;BME280;40258;53.936;27.540;2022-07-23T07:34:59;99226.19;;;28.10;52.42
54361;BME280;40258;53.936;27.540;2022-07-23T07:37:27;99216.88;;;28.29;51.22
54361;BME280;40258;53.936;27.540;2022-07-23T07:39:56;99223.44;;;28.23;52.00
54361;BME280;40258;53.936;27.540;2022-07-23T07:42:25;99227.88;;;28.37;52.30
54361;BME280;40258;53.936;27.540;2022-07-23T07:44:55;99218.34;;;28.50;51.96
54361;BME280;40258;53.936;27.540;2022-07-23T07:47:24;99225.25;;;28.29;52.14
54361;BME280;40258;53.936;27.540;2022-07-23T07:49:52;99226.94;;;28.56;52.87
54361;BME280;40258;53.936;27.540;2022-07-23T07:52:21;99219.66;;;28.75;52.06
54361;BME280;40258;53.936;27.540;2022-07-23T07:54:49;99228.84;;;28.89;50.93
54361;BME280;40258;53.936;27.540;2022-07-23T07:57:18;99222.28;;;28.95;51.40
54361;BME280;40258;53.936;27.540;2022-07-23T07:59:46;99229.88;;;29.08;51.44
54361;BME280;40258;53.936;27.540;2022-07-23T08:02:16;99222.91;;;29.29;51.04
54361;BME280;40258;53.936;27.540;2022-07-23T08:04:45;99230.16;;;29.26;51.11
54361;BME280;40258;53.936;27.540;2022-07-23T08:07:14;99232.72;;;29.20;50.96
54361;BME280;40258;53.936;27.540;2022-07-23T08:09:42;99224.63;;;28.97;49.67
54361;BME280;40258;53.936;27.540;2022-07-23T08:12:11;99224.06;;;28.89;51.28
54361;BME280;40258;53.936;27.540;2022-07-23T08:14:40;99219.88;;;29.23;51.26
54361;BME280;40258;53.936;27.540;2022-07-23T08:17:08;99222.78;;;29.58;50.70
54361;BME280;40258;53.936;27.540;2022-07-23T08:19:39;99225.47;;;29.62;49.27
54361;BME280;40258;53.936;27.540;2022-07-23T08:22:07;99219.19;;;29.45;49.40
54361;BME280;40258;53.936;27.540;2022-07-23T08:24:36;99227.47;;;29.35;49.91
54361;BME280;40258;53.936;27.540;2022-07-23T08:27:04;99215.06;;;29.36;50.39
54361;BME280;40258;53.936;27.540;2022-07-23T08:29:33;99222.22;;;29.63;50.46
54361;BME280;40258;53.936;27.540;2022-07-23T08:32:02;99220.75;;;29.71;49.28
54361;BME280;40258;53.936;27.540;2022-07-23T08:34:31;99217.97;;;29.58;49.49
54361;BME280;40258;53.936;27.540;2022-07-23T08:37:01;99213.59;;;29.70;49.40
54361;BME280;40258;53.936;27.540;2022-07-23T08:39:29;99217.94;;;29.97;48.46
54361;BME280;40258;53.936;27.540;2022-07-23T08:41:58;99212.03;;;29.95;48.06
54361;BME280;40258;53.936;27.540;2022-07-23T08:44:27;99208.38;;;30.07;49.18
54361;BME280;40258;53.936;27.540;2022-07-23T08:46:56;99201.72;;;30.27;47.99
54361;BME280;40258;53.936;27.540;2022-07-23T08:49:24;99208.53;;;30.26;48.51
54361;BME280;40258;53.936;27.540;2022-07-23T08:51:54;99205.34;;;30.15;47.41
54361;BME280;40258;53.936;27.540;2022-07-23T08:54:24;99207.38;;;30.14;49.41
54361;BME280;40258;53.936;27.540;2022-07-23T08:56:52;99199.22;;;30.07;47.88
54361;BME280;40258;53.936;27.540;2022-07-23T08:59:21;99199.53;;;30.09;48.17
54361;BME280;40258;53.936;27.540;2022-07-23T09:01:50;99198.94;;;30.27;48.76
54361;BME280;40258;53.936;27.540;2022-07-23T09:04:18;99199.41;;;30.47;48.12
54361;BME280;40258;53.936;27.540;2022-07-23T09:06:47;99198.44;;;30.41;46.53
54361;BME280;40258;53.936;27.540;2022-07-23T09:09:20;99194.56;;;30.39;47.86
54361;BME280;40258;53.936;27.540;2022-07-23T09:12:03;99183.81;;;30.24;47.64
54361;BME280;40258;53.936;27.540;2022-07-23T09:14:40;99186.75;;;30.21;47.15
54361;BME280;40258;53.936;27.540;2022-07-23T09:17:11;99188.69;;;30.46;47.35
54361;BME280;40258;53.936;27.540;2022-07-23T09:19:41;99184.63;;;30.69;48.49
54361;BME280;40258;53.936;27.540;2022-07-23T09:22:20;99193.69;;;30.73;48.03
54361;BME280;40258;53.936;27.540;2022-07-23T09:25:10;99190.91;;;30.73;46.76
54361;BME280;40258;53.936;27.540;2022-07-23T09:27:52;99184.50;;;30.51;47.03
54361;BME280;40258;53.936;27.540;2022-07-23T09:30:23;99184.44;;;30.63;46.47
54361;BME280;40258;53.936;27.540;2022-07-23T09:33:11;99186.38;;;30.76;46.85
54361;BME280;40258;53.936;27.540;2022-07-23T09:35:46;99183.19;;;30.87;46.75
54361;BME280;40258;53.936;27.540;2022-07-23T09:38:15;99186.94;;;30.93;47.65
54361;BME280;40258;53.936;27.540;2022-07-23T09:40:45;99174.94;;;30.61;46.50
54361;BME280;40258;53.936;27.540;2022-07-23T09:43:27;99175.31;;;30.72;46.90
54361;BME280;40258;53.936;27.540;2022-07-23T09:46:18;99172.13;;;30.83;47.06
54361;BME280;40258;53.936;27.540;2022-07-23T09:48:46;99174.59;;;30.81;46.68
54361;BME280;40258;53.936;27.540;2022-07-23T09:51:15;99158.31;;;30.89;45.99
54361;BME280;40258;53.936;27.540;2022-07-23T09:53:45;99163.41;;;31.12;44.91
54361;BME280;40258;53.936;27.540;2022-07-23T09:56:14;99164.53;;;31.56;45.80
54361;BME280;40258;53.936;27.540;2022-07-23T09:58:45;99163.59;;;31.59;44.14
54361;BME280;40258;53.936;27.540;2022-07-23T10:01:17;99166.25;;;31.62;44.16
54361;BME280;40258;53.936;27.540;2022-07-23T10:03:46;99161.03;;;31.42;46.03
54361;BME280;40258;53.936;27.540;2022-07-23T10:06:35;99157.06;;;31.99;43.67
54361;BME280;40258;53.936;27.540;2022-07-23T10:09:26;99155.78;;;31.53;44.51
54361;BME280;40258;53.936;27.540;2022-07-23T10:12:14;99153.22;;;31.37;45.52
54361;BME280;40258;53.936;27.540;2022-07-23T10:15:05;99152.28;;;31.31;44.56
54361;BME280;40258;53.936;27.540;2022-07-23T10:17:34;99148.56;;;31.43;44.12
54361;BME280;40258;53.936;27.540;2022-07-23T10:20:04;99147.75;;;32.11;45.63
54361;BME280;40258;53.936;27.540;2022-07-23T10:22:35;99146.81;;;32.33;43.46
54361;BME280;40258;53.936;27.540;2022-07-23T10:25:14;99139.94;;;32.43;42.67
54361;BME280;40258;53.936;27.540;2022-07-23T10:28:04;99148.06;;;32.22;42.49
54361;BME280;40258;53.936;27.540;2022-07-23T10:30:43;99139.59;;;32.50;42.87
54361;BME280;40258;53.936;27.540;2022-07-23T10:33:26;99140.56;;;32.38;42.30
54361;BME280;40258;53.936;27.540;2022-07-23T10:36:08;99138.66;;;32.53;42.01
54361;BME280;40258;53.936;27.540;2022-07-23T10:38:47;99143.00;;;32.82;41.45
54361;BME280;40258;53.936;27.540;2022-07-23T10:41:31;99135.44;;;32.97;41.50
54361;BME280;40258;53.936;27.540;2022-07-23T10:44:11;99123.25;;;33.01;42.32
54361;BME280;40258;53.936;27.540;2022-07-23T10:46:59;99138.66;;;33.14;41.43
54361;BME280;40258;53.936;27.540;2022-07-23T10:49:43;99127.88;;;33.13;41.89
54361;BME280;40258;53.936;27.540;2022-07-23T10:52:25;99124.94;;;33.41;40.79
54361;BME280;40258;53.936;27.540;2022-07-23T10:54:56;99123.03;;;33.47;41.64
54361;BME280;40258;53.936;27.540;2022-07-23T10:57:49;99125.41;;;32.63;41.76
54361;BME280;40258;53.936;27.540;2022-07-23T11:00:22;99127.88;;;32.61;42.40
54361;BME280;40258;53.936;27.540;2022-07-23T11:02:54;99126.22;;;32.45;42.41
54361;BME280;40258;53.936;27.540;2022-07-23T11:05:26;99124.31;;;32.51;41.72
54361;BME280;40258;53.936;27.540;2022-07-23T11:08:17;99130.69;;;32.52;41.92
54361;BME280;40258;53.936;27.540;2022-07-23T11:11:09;99116.88;;;32.20;42.01
54361;BME280;40258;53.936;27.540;2022-07-23T11:13:41;99107.72;;;32.81;41.58
54361;BME280;40258;53.936;27.540;2022-07-23T11:16:19;99117.75;;;32.73;41.75
54361;BME280;40258;53.936;27.540;2022-07-23T11:19:14;99114.47;;;33.08;41.53
54361;BME280;40258;53.936;27.540;2022-07-23T11:21:50;99120.22;;;33.23;40.25
54361;BME280;40258;53.936;27.540;2022-07-23T11:24:23;99111.88;;;32.95;40.54
54361;BME280;40258;53.936;27.540;2022-07-23T11:27:01;99116.75;;;33.52;40.67
54361;BME280;40258;53.936;27.540;2022-07-23T11:29:47;99107.47;;;33.85;39.40
54361;BME280;40258;53.936;27.540;2022-07-23T11:32:33;99105.81;;;34.32;38.23
54361;BME280;40258;53.936;27.540;2022-07-23T11:35:27;99113.00;;;34.63;38.97
54361;BME280;40258;53.936;27.540;2022-07-23T11:38:05;99101.03;;;34.68;37.87
54361;BME280;40258;53.936;27.540;2022-07-23T11:40:34;99103.28;;;34.34;39.37
54361;BME280;40258;53.936;27.540;2022-07-23T11:43:06;99116.09;;;34.35;38.16
54361;BME280;40258;53.936;27.540;2022-07-23T11:45:37;99105.00;;;34.17;37.92
54361;BME280;40258;53.936;27.540;2022-07-23T11:48:08;99101.09;;;33.99;38.19
54361;BME280;40258;53.936;27.540;2022-07-23T11:50:39;99101.91;;;33.52;38.93
54361;BME280;40258;53.936;27.540;2022-07-23T11:53:07;99093.09;;;33.35;40.63
54361;BME280;40258;53.936;27.540;2022-07-23T11:55:36;99102.31;;;33.02;40.16
54361;BME280;40258;53.936;27.540;2022-07-23T11:58:05;99097.13;;;33.43;40.60
54361;BME280;40258;53.936;27.540;2022-07-23T12:00:33;99095.16;;;33.58;39.35
54361;BME280;40258;53.936;27.540;2022-07-23T12:03:03;99093.69;;;33.87;39.03
54361;BME280;40258;53.936;27.540;2022-07-23T12:05:36;99097.47;;;33.84;38.23
54361;BME280;40258;53.936;27.540;2022-07-23T12:08:09;99092.19;;;34.16;39.27
54361;BME280;40258;53.936;27.540;2022-07-23T12:10:40;99088.09;;;34.02;38.37
54361;BME280;40258;53.936;27.540;2022-07-23T12:13:11;99086.59;;;34.31;38.74
54361;BME280;40258;53.936;27.540;2022-07-23T12:15:42;99088.84;;;33.88;37.73
54361;BME280;40258;53.936;27.540;2022-07-23T12:18:14;99093.25;;;34.03;38.46
54361;BME280;40258;53.936;27.540;2022-07-23T12:20:45;99087.97;;;33.57;39.30
54361;BME280;40258;53.936;27.540;2022-07-23T12:23:17;99093.16;;;33.49;39.15
54361;BME280;40258;53.936;27.540;2022-07-23T12:25:48;99087.59;;;33.16;40.08
54361;BME280;40258;53.936;27.540;2022-07-23T12:28:19;99084.38;;;33.32;39.98
54361;BME280;40258;53.936;27.540;2022-07-23T12:30:49;99080.91;;;33.38;39.54
54361;BME280;40258;53.936;27.540;2022-07-23T12:33:24;99080.72;;;33.65;38.35
54361;BME280;40258;53.936;27.540;2022-07-23T12:35:55;99076.53;;;33.85;38.87
54361;BME280;40258;53.936;27.540;2022-07-23T12:38:28;99075.69;;;34.09;39.48
54361;BME280;40258;53.936;27.540;2022-07-23T12:40:58;99085.78;;;34.15;39.80
54361;BME280;40258;53.936;27.540;2022-07-23T12:43:30;99089.22;;;33.56;39.01
54361;BME280;40258;53.936;27.540;2022-07-23T12:46:04;99082.16;;;33.37;40.41
54361;BME280;40258;53.936;27.540;2022-07-23T12:48:35;99077.16;;;33.07;39.46
54361;BME280;40258;53.936;27.540;2022-07-23T12:51:06;99069.47;;;32.84;40.59
54361;BME280;40258;53.936;27.540;2022-07-23T12:53:42;99074.63;;;32.85;40.44
54361;BME280;40258;53.936;27.540;2022-07-23T12:56:13;99063.97;;;33.23;41.32
54361;BME280;40258;53.936;27.540;2022-07-23T12:58:46;99066.91;;;33.28;40.75
54361;BME280;40258;53.936;27.540;2022-07-23T13:01:26;99078.63;;;33.51;39.81
54361;BME280;40258;53.936;27.540;2022-07-23T13:03:58;99071.94;;;33.24;41.00
54361;BME280;40258;53.936;27.540;2022-07-23T13:06:28;99063.53;;;33.63;40.06
54361;BME280;40258;53.936;27.540;2022-07-23T13:08:58;99071.78;;;33.91;41.16
54361;BME280;40258;53.936;27.540;2022-07-23T13:11:27;99064.53;;;34.14;39.00